createdAt,value
2017-04-01T00:00:26.056Z,0
2017-04-01T00:01:06.679Z,0
2017-04-01T00:01:47.280Z,0
2017-04-01T00:02:27.872Z,0
2017-04-01T00:03:08.467Z,0
2017-04-01T00:03:49.067Z,0
2017-04-01T00:04:29.671Z,0
2017-04-01T00:05:10.280Z,0
2017-04-01T00:05:50.870Z,0
2017-04-01T00:06:31.509Z,0
2017-04-01T00:07:12.094Z,0
2017-04-01T00:07:52.719Z,0
2017-04-01T00:08:33.309Z,0
2017-04-01T00:09:13.906Z,0
2017-04-01T00:09:54.494Z,0
2017-04-01T00:10:35.128Z,0
2017-04-01T00:11:15.741Z,0
2017-04-01T00:11:56.343Z,0
2017-04-01T00:12:36.953Z,0
2017-04-01T00:13:17.574Z,0
2017-04-01T00:13:58.193Z,0
2017-04-01T00:14:38.786Z,0
2017-04-01T00:15:19.406Z,0
2017-04-01T00:16:00.019Z,0
2017-04-01T00:16:40.624Z,0
2017-04-01T00:17:21.241Z,0
2017-04-01T00:18:01.828Z,0
2017-04-01T00:18:42.416Z,0
2017-04-01T00:19:23.059Z,0
2017-04-01T00:20:03.651Z,0
2017-04-01T00:20:44.234Z,0
2017-04-01T00:21:24.891Z,0
2017-04-01T00:22:05.475Z,0
2017-04-01T00:22:46.103Z,0
2017-04-01T00:23:26.685Z,0
2017-04-01T00:24:07.275Z,0
2017-04-01T00:24:47.917Z,0
2017-04-01T00:25:28.497Z,0
2017-04-01T00:26:09.104Z,0
2017-04-01T00:26:49.700Z,0
2017-04-01T00:27:30.305Z,0
2017-04-01T00:28:10.905Z,0
2017-04-01T00:28:51.504Z,0
2017-04-01T00:29:32.088Z,0
2017-04-01T00:30:12.695Z,0
2017-04-01T00:30:53.314Z,0
2017-04-01T00:31:33.931Z,0
2017-04-01T00:32:14.514Z,0
2017-04-01T00:32:55.131Z,0
2017-04-01T00:33:35.717Z,0
2017-04-01T00:34:16.293Z,0
2017-04-01T00:34:56.882Z,0
2017-04-01T00:35:37.469Z,0
2017-04-01T00:36:18.076Z,0
2017-04-01T00:36:58.687Z,0
2017-04-01T00:37:39.292Z,0
2017-04-01T00:38:19.901Z,0
2017-04-01T00:39:00.494Z,0
2017-04-01T00:39:41.111Z,0
2017-04-01T00:40:21.717Z,0
2017-04-01T00:41:02.415Z,0
2017-04-01T00:41:43.044Z,0
2017-04-01T00:42:23.669Z,0
2017-04-01T00:43:04.237Z,0
2017-04-01T00:43:44.870Z,0
2017-04-01T00:44:25.463Z,0
2017-04-01T00:45:06.183Z,0
2017-04-01T00:45:46.784Z,0
2017-04-01T00:46:27.396Z,0
2017-04-01T00:47:07.995Z,0
2017-04-01T00:47:48.594Z,0
2017-04-01T00:48:29.219Z,0
2017-04-01T00:49:09.822Z,0
2017-04-01T00:49:50.443Z,0
2017-04-01T00:50:31.048Z,0
2017-04-01T00:51:11.649Z,0
2017-04-01T00:51:52.274Z,0
2017-04-01T00:52:32.862Z,0
2017-04-01T00:53:13.511Z,0
2017-04-01T00:53:54.190Z,0
2017-04-01T00:54:34.829Z,0
2017-04-01T00:55:15.454Z,0
2017-04-01T00:55:56.247Z,0
2017-04-01T00:56:36.957Z,0
2017-04-01T00:57:17.540Z,0
2017-04-01T00:57:58.149Z,0
2017-04-01T00:58:38.753Z,0
2017-04-01T00:59:19.330Z,0
2017-04-01T00:59:59.946Z,0
2017-04-01T01:00:40.539Z,0
2017-04-01T01:01:21.129Z,0
2017-04-01T01:02:01.703Z,0
2017-04-01T01:02:42.294Z,0
2017-04-01T01:03:22.903Z,0
2017-04-01T01:04:03.515Z,0
2017-04-01T01:04:44.115Z,0
2017-04-01T01:05:24.746Z,0
2017-04-01T01:06:05.389Z,0
2017-04-01T01:06:45.973Z,0
2017-04-01T01:07:26.581Z,0
2017-04-01T01:08:07.167Z,0
2017-04-01T01:08:47.784Z,0
2017-04-01T01:09:28.372Z,0
2017-04-01T01:10:09.022Z,0
2017-04-01T01:10:49.582Z,0
2017-04-01T01:11:30.188Z,0
2017-04-01T01:12:10.775Z,0
2017-04-01T01:12:51.343Z,0
2017-04-01T01:13:31.911Z,0
2017-04-01T01:14:12.520Z,0
2017-04-01T01:14:53.112Z,0
2017-04-01T01:15:33.710Z,0
2017-04-01T01:16:14.318Z,0
2017-04-01T01:16:54.921Z,0
2017-04-01T01:17:35.556Z,0
2017-04-01T01:18:16.140Z,0
2017-04-01T01:18:56.732Z,0
2017-04-01T01:19:37.370Z,0
2017-04-01T01:20:18.043Z,0
2017-04-01T01:20:58.641Z,0
2017-04-01T01:21:39.242Z,0
2017-04-01T01:22:19.853Z,0
2017-04-01T01:23:00.451Z,0
2017-04-01T01:23:41.061Z,0
2017-04-01T01:24:21.640Z,0
2017-04-01T01:25:02.233Z,0
2017-04-01T01:25:42.824Z,0
2017-04-01T01:26:23.434Z,0
2017-04-01T01:27:03.995Z,0
2017-04-01T01:27:44.556Z,0
2017-04-01T01:28:25.131Z,0
2017-04-01T01:29:05.697Z,0
2017-04-01T01:29:46.335Z,0
2017-04-01T01:30:27.007Z,0
2017-04-01T01:31:07.608Z,0
2017-04-01T01:31:48.207Z,0
2017-04-01T01:32:28.778Z,0
2017-04-01T01:33:09.358Z,0
2017-04-01T01:33:49.925Z,0
2017-04-01T01:34:30.496Z,0
2017-04-01T01:35:11.066Z,0
2017-04-01T01:35:51.648Z,0
2017-04-01T01:36:32.249Z,0
2017-04-01T01:37:12.847Z,0
2017-04-01T01:37:53.461Z,0
2017-04-01T01:38:34.103Z,0
2017-04-01T01:39:14.681Z,0
2017-04-01T01:39:55.277Z,0
2017-04-01T01:40:35.880Z,0
2017-04-01T01:41:16.491Z,0
2017-04-01T01:41:57.077Z,0
2017-04-01T01:42:37.679Z,0
2017-04-01T01:43:18.252Z,0
2017-04-01T01:43:58.832Z,0
2017-04-01T01:44:39.447Z,0
2017-04-01T01:45:20.038Z,0
2017-04-01T01:46:00.664Z,0
2017-04-01T01:46:41.235Z,0
2017-04-01T01:47:21.833Z,0
2017-04-01T01:48:02.408Z,0
2017-04-01T01:48:42.989Z,0
2017-04-01T01:49:23.589Z,0
2017-04-01T01:50:04.185Z,0
2017-04-01T01:50:44.748Z,0
2017-04-01T01:51:25.414Z,0
2017-04-01T01:52:06.001Z,0
2017-04-01T01:52:46.590Z,0
2017-04-01T01:53:27.225Z,0
2017-04-01T01:54:07.809Z,0
2017-04-01T01:54:48.391Z,0
2017-04-01T01:55:28.975Z,0
2017-04-01T01:56:09.576Z,0
2017-04-01T01:56:50.230Z,0
2017-04-01T01:57:30.830Z,0
2017-04-01T01:58:11.418Z,0
2017-04-01T01:58:54.982Z,0
2017-04-01T01:59:35.598Z,0
2017-04-01T02:00:16.197Z,0
2017-04-01T02:00:56.790Z,0
2017-04-01T02:01:37.492Z,0
2017-04-01T02:02:18.124Z,0
2017-04-01T02:02:58.692Z,0
2017-04-01T02:03:39.298Z,0
2017-04-01T02:04:19.867Z,0
2017-04-01T02:05:00.478Z,0
2017-04-01T02:05:41.033Z,0
2017-04-01T02:06:21.603Z,0
2017-04-01T02:07:02.194Z,0
2017-04-01T02:07:42.786Z,0
2017-04-01T02:08:23.374Z,0
2017-04-01T02:09:03.974Z,0
2017-04-01T02:09:44.561Z,0
2017-04-01T02:10:25.161Z,0
2017-04-01T02:11:05.751Z,0
2017-04-01T02:11:46.349Z,0
2017-04-01T02:12:26.967Z,0
2017-04-01T02:13:07.552Z,0
2017-04-01T02:13:48.151Z,0
2017-04-01T02:14:28.719Z,0
2017-04-01T02:15:09.307Z,0
2017-04-01T02:15:49.887Z,0
2017-04-01T02:16:30.472Z,0
2017-04-01T02:17:11.082Z,0
2017-04-01T02:17:51.663Z,0
2017-04-01T02:18:32.246Z,0
2017-04-01T02:19:12.878Z,0
2017-04-01T02:19:53.452Z,0
2017-04-01T02:20:34.019Z,0
2017-04-01T02:21:14.596Z,0
2017-04-01T02:21:55.165Z,0
2017-04-01T02:22:35.759Z,0
2017-04-01T02:23:16.326Z,0
2017-04-01T02:23:56.906Z,0
2017-04-01T02:24:37.492Z,0
2017-04-01T02:25:18.081Z,0
2017-04-01T02:25:58.696Z,0
2017-04-01T02:26:39.243Z,0
2017-04-01T02:27:19.835Z,0
2017-04-01T02:28:00.411Z,0
2017-04-01T02:28:41.020Z,0
2017-04-01T02:29:21.609Z,0
2017-04-01T02:30:02.186Z,0
2017-04-01T02:30:42.754Z,0
2017-04-01T02:31:23.359Z,0
2017-04-01T02:32:04.009Z,0
2017-04-01T02:32:44.591Z,0
2017-04-01T02:33:25.192Z,0
2017-04-01T02:34:05.764Z,0
2017-04-01T02:34:46.346Z,0
2017-04-01T02:35:26.916Z,0
2017-04-01T02:36:07.542Z,0
2017-04-01T02:36:48.121Z,0
2017-04-01T02:37:28.728Z,0
2017-04-01T02:38:09.333Z,0
2017-04-01T02:38:49.944Z,0
2017-04-01T02:39:30.543Z,0
2017-04-01T02:40:11.160Z,0
2017-04-01T02:40:51.742Z,0
2017-04-01T02:41:32.326Z,0
2017-04-01T02:42:12.887Z,0
2017-04-01T02:42:53.472Z,0
2017-04-01T02:43:34.093Z,0
2017-04-01T02:44:14.692Z,0
2017-04-01T02:44:55.267Z,0
2017-04-01T02:45:35.859Z,0
2017-04-01T02:46:16.434Z,0
2017-04-01T02:46:57.029Z,0
2017-04-01T02:47:37.601Z,0
2017-04-01T02:48:18.179Z,0
2017-04-01T02:48:58.766Z,0
2017-04-01T02:49:39.349Z,0
2017-04-01T02:50:19.917Z,0
2017-04-01T02:51:00.487Z,0
2017-04-01T02:51:41.102Z,0
2017-04-01T02:52:21.732Z,0
2017-04-01T02:53:02.355Z,0
2017-04-01T02:53:42.955Z,0
2017-04-01T02:54:23.531Z,0
2017-04-01T02:55:04.105Z,0
2017-04-01T02:55:44.687Z,0
2017-04-01T02:56:25.264Z,0
2017-04-01T02:57:05.871Z,0
2017-04-01T02:57:46.426Z,0
2017-04-01T02:58:27.024Z,0
2017-04-01T02:59:07.633Z,0
2017-04-01T02:59:48.199Z,0
2017-04-01T03:00:28.773Z,0
2017-04-01T03:01:09.367Z,0
2017-04-01T03:01:49.958Z,0
2017-04-01T03:02:30.535Z,0
2017-04-01T03:03:11.132Z,0
2017-04-01T03:03:51.727Z,0
2017-04-01T03:04:32.305Z,0
2017-04-01T03:05:12.912Z,0
2017-04-01T03:05:53.504Z,0
2017-04-01T03:06:34.072Z,0
2017-04-01T03:07:14.671Z,0
2017-04-01T03:07:55.238Z,0
2017-04-01T03:08:35.848Z,0
2017-04-01T03:09:16.456Z,0
2017-04-01T03:09:57.088Z,0
2017-04-01T03:10:37.662Z,0
2017-04-01T03:11:18.281Z,0
2017-04-01T03:11:58.884Z,0
2017-04-01T03:12:39.459Z,0
2017-04-01T03:13:20.050Z,0
2017-04-01T03:14:00.620Z,0
2017-04-01T03:14:41.194Z,0
2017-04-01T03:15:21.784Z,0
2017-04-01T03:16:02.392Z,0
2017-04-01T03:16:42.991Z,0
2017-04-01T03:17:23.585Z,0
2017-04-01T03:18:04.179Z,0
2017-04-01T03:18:44.767Z,0
2017-04-01T03:19:25.352Z,0
2017-04-01T03:20:05.926Z,0
2017-04-01T03:20:46.526Z,0
2017-04-01T03:21:27.127Z,0
2017-04-01T03:22:07.718Z,0
2017-04-01T03:22:48.320Z,0
2017-04-01T03:23:28.894Z,0
2017-04-01T03:24:09.472Z,0
2017-04-01T03:24:50.043Z,0
2017-04-01T03:25:30.683Z,0
2017-04-01T03:26:11.338Z,0
2017-04-01T03:26:52.002Z,0
2017-04-01T03:27:32.613Z,0
2017-04-01T03:28:13.209Z,0
2017-04-01T03:28:53.777Z,0
2017-04-01T03:29:34.361Z,0
2017-04-01T03:30:14.996Z,0
2017-04-01T03:30:55.596Z,0
2017-04-01T03:31:36.196Z,0
2017-04-01T03:32:16.793Z,0
2017-04-01T03:32:57.445Z,0
2017-04-01T03:33:38.037Z,0
2017-04-01T03:34:18.615Z,0
2017-04-01T03:34:59.223Z,0
2017-04-01T03:35:39.818Z,0
2017-04-01T03:36:20.386Z,0
2017-04-01T03:37:00.980Z,0
2017-04-01T03:37:41.581Z,0
2017-04-01T03:38:22.199Z,0
2017-04-01T03:39:02.788Z,0
2017-04-01T03:39:43.404Z,0
2017-04-01T03:40:24.003Z,0
2017-04-01T03:41:04.587Z,0
2017-04-01T03:41:45.186Z,0
2017-04-01T03:42:26.108Z,0
2017-04-01T03:43:06.882Z,0
2017-04-01T03:43:48.404Z,0
2017-04-01T03:44:28.994Z,0
2017-04-01T03:45:09.627Z,0
2017-04-01T03:45:50.197Z,0
2017-04-01T03:46:31.042Z,0
2017-04-01T03:47:11.635Z,0
2017-04-01T03:47:52.211Z,0
2017-04-01T03:48:32.808Z,0
2017-04-01T03:49:13.394Z,0
2017-04-01T03:49:53.965Z,0
2017-04-01T03:50:34.566Z,0
2017-04-01T03:51:15.177Z,0
2017-04-01T03:51:55.756Z,0
2017-04-01T03:52:36.348Z,0
2017-04-01T03:53:16.948Z,0
2017-04-01T03:53:57.537Z,0
2017-04-01T03:54:38.125Z,0
2017-04-01T03:55:18.724Z,0
2017-04-01T03:55:59.313Z,0
2017-04-01T03:56:39.928Z,0
2017-04-01T03:57:20.514Z,0
2017-04-01T03:58:01.106Z,0
2017-04-01T03:58:41.696Z,0
2017-04-01T03:59:22.283Z,0
2017-04-01T04:00:02.855Z,0
2017-04-01T04:00:43.445Z,0
2017-04-01T04:01:24.042Z,0
2017-04-01T04:02:04.636Z,0
2017-04-01T04:02:45.243Z,0
2017-04-01T04:03:25.827Z,0
2017-04-01T04:04:06.432Z,0
2017-04-01T04:04:47.049Z,0
2017-04-01T04:05:27.718Z,0
2017-04-01T04:06:08.298Z,0
2017-04-01T04:06:48.904Z,0
2017-04-01T04:07:29.484Z,0
2017-04-01T04:08:10.057Z,0
2017-04-01T04:08:50.731Z,0
2017-04-01T04:09:31.340Z,0
2017-04-01T04:10:11.909Z,0
2017-04-01T04:10:52.474Z,0
2017-04-01T04:11:33.084Z,0
2017-04-01T04:12:13.638Z,0
2017-04-01T04:12:54.212Z,0
2017-04-01T04:13:34.792Z,0
2017-04-01T04:14:15.418Z,0
2017-04-01T04:14:56.003Z,0
2017-04-01T04:15:36.633Z,0
2017-04-01T04:16:17.250Z,0
2017-04-01T04:16:57.832Z,0
2017-04-01T04:17:38.421Z,0
2017-04-01T04:18:19.011Z,0
2017-04-01T04:18:59.602Z,0
2017-04-01T04:19:40.225Z,0
2017-04-01T04:20:20.883Z,0
2017-04-01T04:21:01.518Z,0
2017-04-01T04:21:42.075Z,0
2017-04-01T04:22:22.689Z,0
2017-04-01T04:23:03.319Z,0
2017-04-01T04:23:43.917Z,0
2017-04-01T04:24:24.564Z,0
2017-04-01T04:25:05.148Z,0
2017-04-01T04:25:45.748Z,0
2017-04-01T04:26:26.342Z,0
2017-04-01T04:27:06.983Z,0
2017-04-01T04:27:47.558Z,0
2017-04-01T04:28:28.190Z,0
2017-04-01T04:29:08.778Z,0
2017-04-01T04:29:49.377Z,0
2017-04-01T04:30:29.975Z,0
2017-04-01T04:31:10.576Z,0
2017-04-01T04:31:51.177Z,0
2017-04-01T04:32:31.856Z,0
2017-04-01T04:33:12.449Z,0
2017-04-01T04:33:53.026Z,0
2017-04-01T04:34:33.633Z,0
2017-04-01T04:35:14.253Z,0
2017-04-01T04:35:54.952Z,0
2017-04-01T04:36:35.538Z,0
2017-04-01T04:37:16.140Z,0
2017-04-01T04:37:56.763Z,0
2017-04-01T04:38:37.354Z,0
2017-04-01T04:39:17.971Z,0
2017-04-01T04:39:58.561Z,0
2017-04-01T04:40:39.156Z,0
2017-04-01T04:41:19.754Z,0
2017-04-01T04:42:00.476Z,0
2017-04-01T04:42:41.083Z,0
2017-04-01T04:43:21.674Z,0
2017-04-01T04:44:02.261Z,5
2017-04-01T04:44:42.873Z,5
2017-04-01T04:45:23.459Z,5
2017-04-01T04:46:04.055Z,5
2017-04-01T04:46:44.654Z,5
2017-04-01T04:47:25.261Z,5
2017-04-01T04:48:05.870Z,5
2017-04-01T04:48:46.493Z,5
2017-04-01T04:49:27.114Z,5
2017-04-01T04:50:07.725Z,5
2017-04-01T04:50:48.342Z,5
2017-04-01T04:51:28.935Z,10
2017-04-01T04:52:09.553Z,10
2017-04-01T04:52:50.130Z,10
2017-04-01T04:53:30.753Z,10
2017-04-01T04:54:11.378Z,10
2017-04-01T04:54:52.003Z,10
2017-04-01T04:55:32.598Z,15
2017-04-01T04:56:13.222Z,15
2017-04-01T04:56:53.809Z,15
2017-04-01T04:57:34.416Z,15
2017-04-01T04:58:14.997Z,15
2017-04-01T04:58:55.608Z,15
2017-04-01T04:59:36.233Z,15
2017-04-01T05:00:16.819Z,20
2017-04-01T05:00:57.430Z,20
2017-04-01T05:01:38.035Z,20
2017-04-01T05:02:18.664Z,20
2017-04-01T05:02:59.277Z,20
2017-04-01T05:03:39.895Z,20
2017-04-01T05:04:20.499Z,25
2017-04-01T05:05:01.108Z,25
2017-04-01T05:05:41.735Z,25
2017-04-01T05:06:22.333Z,25
2017-04-01T05:07:02.927Z,25
2017-04-01T05:07:43.546Z,25
2017-04-01T05:08:24.125Z,25
2017-04-01T05:09:04.718Z,30
2017-04-01T05:09:45.336Z,30
2017-04-01T05:10:25.958Z,30
2017-04-01T05:11:06.557Z,30
2017-04-01T05:11:47.158Z,30
2017-04-01T05:12:27.785Z,30
2017-04-01T05:13:08.392Z,30
2017-04-01T05:13:48.986Z,30
2017-04-01T05:14:29.577Z,30
2017-04-01T05:15:10.173Z,35
2017-04-01T05:15:50.773Z,35
2017-04-01T05:16:31.391Z,35
2017-04-01T05:17:11.979Z,35
2017-04-01T05:17:52.584Z,35
2017-04-01T05:18:33.206Z,35
2017-04-01T05:19:13.835Z,40
2017-04-01T05:19:54.477Z,40
2017-04-01T05:20:35.082Z,40
2017-04-01T05:21:15.670Z,40
2017-04-01T05:21:56.270Z,40
2017-04-01T05:22:36.882Z,40
2017-04-01T05:23:17.472Z,40
2017-04-01T05:23:58.070Z,45
2017-04-01T05:24:38.671Z,45
2017-04-01T05:25:19.260Z,50
2017-04-01T05:25:59.882Z,50
2017-04-01T05:26:40.453Z,50
2017-04-01T05:27:21.065Z,50
2017-04-01T05:28:01.736Z,55
2017-04-01T05:28:42.325Z,55
2017-04-01T05:29:22.933Z,55
2017-04-01T05:30:03.528Z,55
2017-04-01T05:30:44.134Z,55
2017-04-01T05:31:24.735Z,60
2017-04-01T05:32:05.326Z,60
2017-04-01T05:32:45.939Z,60
2017-04-01T05:33:26.537Z,60
2017-04-01T05:34:07.140Z,65
2017-04-01T05:34:47.778Z,65
2017-04-01T05:35:28.376Z,65
2017-04-01T05:36:09.001Z,65
2017-04-01T05:36:49.591Z,70
2017-04-01T05:37:30.221Z,70
2017-04-01T05:38:10.849Z,70
2017-04-01T05:38:51.443Z,70
2017-04-01T05:39:32.046Z,70
2017-04-01T05:40:12.657Z,75
2017-04-01T05:40:53.284Z,75
2017-04-01T05:41:33.879Z,75
2017-04-01T05:42:14.484Z,75
2017-04-01T05:42:55.084Z,80
2017-04-01T05:43:35.674Z,80
2017-04-01T05:44:16.262Z,80
2017-04-01T05:44:56.857Z,80
2017-04-01T05:45:37.479Z,80
2017-04-01T05:46:18.079Z,80
2017-04-01T05:46:58.709Z,80
2017-04-01T05:47:39.320Z,85
2017-04-01T05:48:19.916Z,85
2017-04-01T05:49:00.531Z,85
2017-04-01T05:49:41.121Z,80
2017-04-01T05:50:21.730Z,80
2017-04-01T05:51:02.321Z,80
2017-04-01T05:51:43.051Z,80
2017-04-01T05:52:23.760Z,80
2017-04-01T05:53:04.423Z,80
2017-04-01T05:53:45.307Z,80
2017-04-01T05:54:25.896Z,80
2017-04-01T05:55:06.515Z,80
2017-04-01T05:55:47.671Z,80
2017-04-01T05:56:28.271Z,80
2017-04-01T05:57:08.903Z,80
2017-04-01T05:57:49.521Z,80
2017-04-01T05:58:30.116Z,80
2017-04-01T05:59:10.738Z,80
2017-04-01T05:59:51.330Z,80
2017-04-01T06:00:31.978Z,80
2017-04-01T06:01:12.564Z,80
2017-04-01T06:01:53.157Z,85
2017-04-01T06:02:33.737Z,85
2017-04-01T06:03:14.347Z,90
2017-04-01T06:03:54.920Z,90
2017-04-01T06:04:35.520Z,90
2017-04-01T06:05:16.127Z,90
2017-04-01T06:05:56.757Z,90
2017-04-01T06:06:37.340Z,90
2017-04-01T06:07:17.962Z,95
2017-04-01T06:07:58.569Z,100
2017-04-01T06:08:39.147Z,100
2017-04-01T06:09:19.739Z,100
2017-04-01T06:10:00.339Z,100
2017-04-01T06:10:40.916Z,105
2017-04-01T06:11:21.516Z,105
2017-04-01T06:12:02.115Z,110
2017-04-01T06:12:42.737Z,110
2017-04-01T06:13:23.322Z,115
2017-04-01T06:14:03.948Z,115
2017-04-01T06:14:44.541Z,120
2017-04-01T06:15:25.126Z,125
2017-04-01T06:16:05.770Z,125
2017-04-01T06:16:46.947Z,130
2017-04-01T06:17:27.601Z,130
2017-04-01T06:18:08.491Z,130
2017-04-01T06:18:49.100Z,130
2017-04-01T06:19:29.711Z,130
2017-04-01T06:20:10.408Z,130
2017-04-01T06:20:51.048Z,130
2017-04-01T06:21:31.654Z,130
2017-04-01T06:22:12.279Z,130
2017-04-01T06:22:52.864Z,130
2017-04-01T06:23:33.487Z,130
2017-04-01T06:24:14.091Z,125
2017-04-01T06:24:54.695Z,120
2017-04-01T06:25:35.297Z,120
2017-04-01T06:26:15.906Z,115
2017-04-01T06:26:56.497Z,115
2017-04-01T06:27:37.114Z,115
2017-04-01T06:28:17.711Z,115
2017-04-01T06:28:58.336Z,120
2017-04-01T06:29:38.934Z,125
2017-04-01T06:30:19.539Z,130
2017-04-01T06:31:00.175Z,140
2017-04-01T06:31:40.763Z,145
2017-04-01T06:32:21.377Z,150
2017-04-01T06:33:01.971Z,150
2017-04-01T06:33:42.575Z,150
2017-04-01T06:34:23.168Z,150
2017-04-01T06:35:03.785Z,150
2017-04-01T06:35:44.375Z,155
2017-04-01T06:36:24.960Z,150
2017-04-01T06:37:05.560Z,155
2017-04-01T06:37:46.141Z,155
2017-04-01T06:38:26.766Z,155
2017-04-01T06:39:07.383Z,155
2017-04-01T06:39:48.031Z,160
2017-04-01T06:40:28.640Z,180
2017-04-01T06:41:09.264Z,300
2017-04-01T06:41:49.857Z,520
2017-04-01T06:42:30.471Z,995
2017-04-01T06:43:11.071Z,1385
2017-04-01T06:43:51.674Z,1380
2017-04-01T06:44:32.273Z,1365
2017-04-01T06:45:12.926Z,1365
2017-04-01T06:45:53.540Z,1365
2017-04-01T06:46:34.134Z,1410
2017-04-01T06:47:14.724Z,1340
2017-04-01T06:47:55.307Z,1410
2017-04-01T06:48:35.906Z,1395
2017-04-01T06:49:16.502Z,1360
2017-04-01T06:49:57.105Z,1400
2017-04-01T06:50:37.696Z,1500
2017-04-01T06:51:18.324Z,1490
2017-04-01T06:51:58.914Z,1445
2017-04-01T06:52:39.499Z,1340
2017-04-01T06:53:20.131Z,1440
2017-04-01T06:54:00.731Z,1450
2017-04-01T06:54:41.336Z,1375
2017-04-01T06:55:21.970Z,1335
2017-04-01T06:56:02.582Z,1450
2017-04-01T06:56:43.181Z,1585
2017-04-01T06:57:23.772Z,1590
2017-04-01T06:58:04.393Z,1665
2017-04-01T06:58:44.993Z,1675
2017-04-01T06:59:25.611Z,1675
2017-04-01T07:00:06.236Z,1610
2017-04-01T07:00:46.853Z,1675
2017-04-01T07:01:27.464Z,1675
2017-04-01T07:02:08.089Z,1505
2017-04-01T07:02:48.714Z,1630
2017-04-01T07:03:29.322Z,1635
2017-04-01T07:04:09.920Z,1695
2017-04-01T07:04:50.521Z,1630
2017-04-01T07:05:31.136Z,1570
2017-04-01T07:06:11.759Z,1555
2017-04-01T07:06:52.368Z,1620
2017-04-01T07:07:32.981Z,1595
2017-04-01T07:08:13.600Z,1565
2017-04-01T07:08:54.205Z,1650
2017-04-01T07:09:34.817Z,1585
2017-04-01T07:10:15.418Z,1620
2017-04-01T07:10:56.011Z,1665
2017-04-01T07:11:36.614Z,1715
2017-04-01T07:12:17.216Z,1740
2017-04-01T07:12:57.811Z,1690
2017-04-01T07:13:38.418Z,1635
2017-04-01T07:14:19.023Z,1635
2017-04-01T07:14:59.623Z,1655
2017-04-01T07:15:40.229Z,1705
2017-04-01T07:16:20.852Z,1735
2017-04-01T07:17:01.484Z,1695
2017-04-01T07:17:42.086Z,1640
2017-04-01T07:18:22.695Z,1410
2017-04-01T07:19:03.304Z,1640
2017-04-01T07:19:43.916Z,1735
2017-04-01T07:20:24.523Z,1700
2017-04-01T07:21:05.121Z,1665
2017-04-01T07:21:45.731Z,1665
2017-04-01T07:22:26.350Z,1635
2017-04-01T07:23:06.963Z,1640
2017-04-01T07:23:47.555Z,1630
2017-04-01T07:24:28.203Z,1620
2017-04-01T07:25:08.816Z,1605
2017-04-01T07:25:49.421Z,1540
2017-04-01T07:26:30.063Z,1500
2017-04-01T07:27:10.689Z,1485
2017-04-01T07:27:51.367Z,1485
2017-04-01T07:28:32.035Z,1420
2017-04-01T07:29:12.702Z,1400
2017-04-01T07:29:53.403Z,1410
2017-04-01T07:30:34.128Z,1330
2017-04-01T07:31:14.769Z,1225
2017-04-01T07:31:55.530Z,1150
2017-04-01T07:32:36.276Z,1150
2017-04-01T07:33:17.030Z,1015
2017-04-01T07:33:57.732Z,895
2017-04-01T07:34:38.479Z,1040
2017-04-01T07:35:19.139Z,975
2017-04-01T07:35:59.791Z,925
2017-04-01T07:36:40.405Z,850
2017-04-01T07:37:21.038Z,825
2017-04-01T07:38:01.649Z,880
2017-04-01T07:38:42.300Z,870
2017-04-01T07:39:22.896Z,850
2017-04-01T07:40:03.494Z,890
2017-04-01T07:40:44.083Z,1000
2017-04-01T07:41:24.673Z,1325
2017-04-01T07:42:05.300Z,1595
2017-04-01T07:42:45.932Z,1660
2017-04-01T07:43:26.559Z,1675
2017-04-01T07:44:07.160Z,1885
2017-04-01T07:44:47.769Z,1955
2017-04-01T07:45:28.382Z,1880
2017-04-01T07:46:09.019Z,1765
2017-04-01T07:46:49.655Z,1565
2017-04-01T07:47:30.262Z,1755
2017-04-01T07:48:10.865Z,1665
2017-04-01T07:48:51.475Z,1755
2017-04-01T07:49:32.085Z,1805
2017-04-01T07:50:12.709Z,1930
2017-04-01T07:50:53.320Z,1980
2017-04-01T07:51:33.925Z,1965
2017-04-01T07:52:14.540Z,1990
2017-04-01T07:52:55.152Z,1990
2017-04-01T07:53:35.763Z,1935
2017-04-01T07:54:16.417Z,1910
2017-04-01T07:54:57.011Z,1890
2017-04-01T07:55:37.620Z,1935
2017-04-01T07:56:18.250Z,2005
2017-04-01T07:56:58.863Z,2030
2017-04-01T07:57:39.496Z,1905
2017-04-01T07:58:20.119Z,1915
2017-04-01T07:59:00.733Z,1895
2017-04-01T07:59:41.333Z,1925
2017-04-01T08:00:21.977Z,1895
2017-04-01T08:01:02.575Z,1990
2017-04-01T08:01:44.049Z,2060
2017-04-01T08:02:25.022Z,2095
2017-04-01T08:03:05.628Z,2040
2017-04-01T08:03:48.423Z,1980
2017-04-01T08:04:40.956Z,1870
2017-04-01T08:05:21.904Z,1820
2017-04-01T08:06:02.550Z,1865
2017-04-01T08:06:43.227Z,1860
2017-04-01T08:07:23.871Z,1865
2017-04-01T08:08:04.739Z,1870
2017-04-01T08:08:45.941Z,1940
2017-04-01T08:09:28.045Z,1985
2017-04-01T08:10:10.875Z,1970
2017-04-01T08:10:56.746Z,2090
2017-04-01T08:11:43.124Z,1850
2017-04-01T08:12:24.632Z,2005
2017-04-01T08:13:05.273Z,1905
2017-04-01T08:13:48.485Z,1935
2017-04-01T08:14:29.093Z,1975
2017-04-01T08:15:09.760Z,1950
2017-04-01T08:15:52.684Z,1935
2017-04-01T08:16:36.399Z,1880
2017-04-01T08:17:20.228Z,1785
2017-04-01T08:18:02.584Z,1915
2017-04-01T08:18:43.893Z,1675
2017-04-01T08:19:27.723Z,1150
2017-04-01T08:20:08.963Z,650
2017-04-01T08:20:49.569Z,510
2017-04-01T08:21:30.188Z,480
2017-04-01T08:22:10.809Z,470
2017-04-01T08:22:51.445Z,465
2017-04-01T08:23:32.085Z,460
2017-04-01T08:24:12.709Z,460
2017-04-01T08:24:53.375Z,450
2017-04-01T08:25:34.039Z,450
2017-04-01T08:26:16.571Z,435
2017-04-01T08:27:02.988Z,425
2017-04-01T08:27:47.015Z,420
2017-04-01T08:28:28.342Z,370
2017-04-01T08:29:13.136Z,360
2017-04-01T08:29:54.689Z,355
2017-04-01T08:30:36.710Z,355
2017-04-01T08:31:17.911Z,350
2017-04-01T08:31:59.463Z,355
2017-04-01T08:32:40.406Z,355
2017-04-01T08:33:21.034Z,360
2017-04-01T08:34:01.816Z,355
2017-04-01T08:34:42.443Z,360
2017-04-01T08:35:23.089Z,360
2017-04-01T08:36:04.066Z,345
2017-04-01T08:36:44.666Z,345
2017-04-01T08:37:25.993Z,340
2017-04-01T08:38:06.581Z,335
2017-04-01T08:38:47.272Z,330
2017-04-01T08:39:27.889Z,325
2017-04-01T08:40:08.523Z,325
2017-04-01T08:40:49.168Z,325
2017-04-01T08:41:29.763Z,315
2017-04-01T08:42:10.357Z,310
2017-04-01T08:42:51.313Z,305
2017-04-01T08:43:32.381Z,300
2017-04-01T08:44:13.008Z,290
2017-04-01T08:44:53.605Z,285
2017-04-01T08:45:34.789Z,285
2017-04-01T08:46:16.565Z,280
2017-04-01T08:46:57.227Z,265
2017-04-01T08:47:37.865Z,265
2017-04-01T08:48:19.658Z,265
2017-04-01T08:49:00.470Z,260
2017-04-01T08:49:41.174Z,255
2017-04-01T08:50:21.827Z,250
2017-04-01T08:51:02.452Z,250
2017-04-01T08:51:43.255Z,245
2017-04-01T08:52:23.855Z,240
2017-04-01T08:53:05.097Z,240
2017-04-01T08:53:45.784Z,240
2017-04-01T08:54:26.425Z,235
2017-04-01T08:55:07.021Z,230
2017-04-01T08:55:47.611Z,235
2017-04-01T08:56:28.218Z,235
2017-04-01T08:57:10.725Z,230
2017-04-01T08:57:55.681Z,230
2017-04-01T08:58:38.825Z,225
2017-04-01T08:59:20.929Z,225
2017-04-01T09:00:03.547Z,225
2017-04-01T09:00:46.799Z,220
2017-04-01T09:01:27.410Z,220
2017-04-01T09:02:08.045Z,220
2017-04-01T09:02:49.100Z,215
2017-04-01T09:03:30.570Z,215
2017-04-01T09:04:13.396Z,215
2017-04-01T09:04:54.768Z,205
2017-04-01T09:05:36.572Z,205
2017-04-01T09:06:17.194Z,205
2017-04-01T09:06:57.786Z,200
2017-04-01T09:07:38.407Z,200
2017-04-01T09:08:19.002Z,205
2017-04-01T09:09:06.397Z,200
2017-04-01T09:09:50.969Z,195
2017-04-01T09:10:31.825Z,195
2017-04-01T09:11:14.427Z,185
2017-04-01T09:12:00.511Z,185
2017-04-01T09:12:44.130Z,180
2017-04-01T09:13:27.050Z,180
2017-04-01T09:14:10.355Z,170
2017-04-01T09:14:51.822Z,175
2017-04-01T09:15:33.918Z,175
2017-04-01T09:16:14.513Z,175
2017-04-01T09:16:55.124Z,165
2017-04-01T09:17:35.711Z,170
2017-04-01T09:18:16.320Z,175
2017-04-01T09:18:56.893Z,180
2017-04-01T09:19:37.482Z,180
2017-04-01T09:20:18.074Z,180
2017-04-01T09:20:58.708Z,185
2017-04-01T09:21:39.284Z,185
2017-04-01T09:22:19.900Z,185
2017-04-01T09:23:00.497Z,180
2017-04-01T09:23:41.076Z,185
2017-04-01T09:24:21.676Z,190
2017-04-01T09:25:02.289Z,200
2017-04-01T09:25:42.877Z,205
2017-04-01T09:26:23.496Z,215
2017-04-01T09:27:04.146Z,215
2017-04-01T09:27:44.747Z,215
2017-04-01T09:28:25.399Z,215
2017-04-01T09:29:06.025Z,215
2017-04-01T09:29:46.625Z,215
2017-04-01T09:30:27.216Z,215
2017-04-01T09:31:07.805Z,215
2017-04-01T09:31:48.441Z,210
2017-04-01T09:32:29.021Z,205
2017-04-01T09:33:09.610Z,205
2017-04-01T09:33:50.190Z,205
2017-04-01T09:34:30.785Z,200
2017-04-01T09:35:11.392Z,200
2017-04-01T09:35:51.996Z,200
2017-04-01T09:36:32.572Z,200
2017-04-01T09:37:13.146Z,195
2017-04-01T09:37:53.765Z,195
2017-04-01T09:38:34.349Z,195
2017-04-01T09:39:14.925Z,195
2017-04-01T09:39:55.540Z,195
2017-04-01T09:40:36.172Z,190
2017-04-01T09:41:16.769Z,190